sensor_id;sensor_type;location;lat;lon;timestamp;temperature;humidity
32173;DHT22;18679;45.190;5.722;2022-12-10T00:00:34;9.60;67.70
32173;DHT22;18679;45.190;5.722;2022-12-10T00:03:36;9.50;67.70
32173;DHT22;18679;45.190;5.722;2022-12-10T00:06:37;9.50;67.60
32173;DHT22;18679;45.190;5.722;2022-12-10T00:09:38;9.50;67.60
32173;DHT22;18679;45.190;5.722;2022-12-10T00:12:39;9.50;67.60
32173;DHT22;18679;45.190;5.722;2022-12-10T00:15:40;9.50;67.70
32173;DHT22;18679;45.190;5.722;2022-12-10T00:18:41;9.40;67.60
32173;DHT22;18679;45.190;5.722;2022-12-10T00:21:43;9.40;67.60
32173;DHT22;18679;45.190;5.722;2022-12-10T00:24:46;9.40;67.70
32173;DHT22;18679;45.190;5.722;2022-12-10T00:27:46;9.40;67.70
32173;DHT22;18679;45.190;5.722;2022-12-10T00:30:47;9.30;67.70
32173;DHT22;18679;45.190;5.722;2022-12-10T00:33:48;9.30;67.70
32173;DHT22;18679;45.190;5.722;2022-12-10T00:36:49;9.30;67.70
32173;DHT22;18679;45.190;5.722;2022-12-10T00:39:51;9.30;67.70
32173;DHT22;18679;45.190;5.722;2022-12-10T00:42:52;9.30;67.50
32173;DHT22;18679;45.190;5.722;2022-12-10T00:45:53;9.20;67.30
32173;DHT22;18679;45.190;5.722;2022-12-10T00:48:54;9.20;67.20
32173;DHT22;18679;45.190;5.722;2022-12-10T00:51:55;9.10;67.00
32173;DHT22;18679;45.190;5.722;2022-12-10T00:54:56;9.10;66.90
32173;DHT22;18679;45.190;5.722;2022-12-10T00:57:56;9.00;66.90
32173;DHT22;18679;45.190;5.722;2022-12-10T01:01:34;9.00;67.00
32173;DHT22;18679;45.190;5.722;2022-12-10T01:04:35;9.00;67.10
32173;DHT22;18679;45.190;5.722;2022-12-10T01:07:36;9.00;67.10
32173;DHT22;18679;45.190;5.722;2022-12-10T01:10:37;9.00;67.00
32173;DHT22;18679;45.190;5.722;2022-12-10T01:13:39;9.00;66.80
32173;DHT22;18679;45.190;5.722;2022-12-10T01:16:39;8.90;66.80
32173;DHT22;18679;45.190;5.722;2022-12-10T01:19:40;8.90;66.80
32173;DHT22;18679;45.190;5.722;2022-12-10T01:22:41;8.90;67.60
32173;DHT22;18679;45.190;5.722;2022-12-10T01:25:42;8.90;66.90
32173;DHT22;18679;45.190;5.722;2022-12-10T01:28:43;8.90;66.80
32173;DHT22;18679;45.190;5.722;2022-12-10T01:31:44;8.90;66.90
32173;DHT22;18679;45.190;5.722;2022-12-10T01:34:48;8.80;66.80
32173;DHT22;18679;45.190;5.722;2022-12-10T01:37:49;8.90;66.90
32173;DHT22;18679;45.190;5.722;2022-12-10T01:40:50;8.90;66.90
32173;DHT22;18679;45.190;5.722;2022-12-10T01:46:58;8.80;66.70
32173;DHT22;18679;45.190;5.722;2022-12-10T01:50:00;8.80;66.70
32173;DHT22;18679;45.190;5.722;2022-12-10T01:53:02;8.80;66.70
32173;DHT22;18679;45.190;5.722;2022-12-10T01:56:04;8.80;66.80
32173;DHT22;18679;45.190;5.722;2022-12-10T01:59:05;8.70;66.80
32173;DHT22;18679;45.190;5.722;2022-12-10T02:02:17;8.70;66.90
32173;DHT22;18679;45.190;5.722;2022-12-10T02:05:48;8.70;67.10
32173;DHT22;18679;45.190;5.722;2022-12-10T02:19:52;8.60;67.50
32173;DHT22;18679;45.190;5.722;2022-12-10T02:23:11;8.50;67.50
32173;DHT22;18679;45.190;5.722;2022-12-10T02:29:55;8.40;67.90
32173;DHT22;18679;45.190;5.722;2022-12-10T02:33:00;8.40;67.90
32173;DHT22;18679;45.190;5.722;2022-12-10T02:36:03;8.40;68.00
32173;DHT22;18679;45.190;5.722;2022-12-10T02:39:10;8.40;68.10
32173;DHT22;18679;45.190;5.722;2022-12-10T02:42:19;8.40;68.00
32173;DHT22;18679;45.190;5.722;2022-12-10T02:45:24;8.40;67.90
32173;DHT22;18679;45.190;5.722;2022-12-10T02:48:27;8.40;67.80
32173;DHT22;18679;45.190;5.722;2022-12-10T02:51:28;8.40;67.70
32173;DHT22;18679;45.190;5.722;2022-12-10T02:54:33;8.40;67.60
32173;DHT22;18679;45.190;5.722;2022-12-10T03:00:58;8.40;67.50
32173;DHT22;18679;45.190;5.722;2022-12-10T03:04:14;8.40;67.60
32173;DHT22;18679;45.190;5.722;2022-12-10T03:10:39;8.50;67.60
32173;DHT22;18679;45.190;5.722;2022-12-10T03:17:41;8.40;68.00
32173;DHT22;18679;45.190;5.722;2022-12-10T03:20:44;8.30;67.90
32173;DHT22;18679;45.190;5.722;2022-12-10T03:23:48;8.30;68.20
32173;DHT22;18679;45.190;5.722;2022-12-10T03:26:50;8.20;68.20
32173;DHT22;18679;45.190;5.722;2022-12-10T03:29:55;8.20;68.30
32173;DHT22;18679;45.190;5.722;2022-12-10T03:32:56;8.10;68.50
32173;DHT22;18679;45.190;5.722;2022-12-10T03:35:58;8.10;68.60
32173;DHT22;18679;45.190;5.722;2022-12-10T03:39:00;8.10;68.70
32173;DHT22;18679;45.190;5.722;2022-12-10T03:42:01;8.10;68.60
32173;DHT22;18679;45.190;5.722;2022-12-10T03:45:04;8.10;68.50
32173;DHT22;18679;45.190;5.722;2022-12-10T03:48:06;8.10;68.50
32173;DHT22;18679;45.190;5.722;2022-12-10T03:51:07;8.10;68.20
32173;DHT22;18679;45.190;5.722;2022-12-10T03:54:08;8.10;68.00
32173;DHT22;18679;45.190;5.722;2022-12-10T03:57:09;8.10;67.90
32173;DHT22;18679;45.190;5.722;2022-12-10T04:00:11;8.10;67.90
32173;DHT22;18679;45.190;5.722;2022-12-10T04:03:12;8.10;67.80
32173;DHT22;18679;45.190;5.722;2022-12-10T04:06:16;8.20;67.80
32173;DHT22;18679;45.190;5.722;2022-12-10T04:09:17;8.20;67.70
32173;DHT22;18679;45.190;5.722;2022-12-10T04:12:18;8.20;67.50
32173;DHT22;18679;45.190;5.722;2022-12-10T04:15:19;8.20;67.40
32173;DHT22;18679;45.190;5.722;2022-12-10T04:18:54;8.10;67.20
32173;DHT22;18679;45.190;5.722;2022-12-10T04:21:55;8.00;67.40
32173;DHT22;18679;45.190;5.722;2022-12-10T04:25:15;7.90;67.60
32173;DHT22;18679;45.190;5.722;2022-12-10T04:28:34;7.80;67.70
32173;DHT22;18679;45.190;5.722;2022-12-10T04:31:34;7.70;67.80
32173;DHT22;18679;45.190;5.722;2022-12-10T04:34:36;7.70;68.00
32173;DHT22;18679;45.190;5.722;2022-12-10T04:37:37;7.70;68.10
32173;DHT22;18679;45.190;5.722;2022-12-10T04:40:38;7.70;68.10
32173;DHT22;18679;45.190;5.722;2022-12-10T04:43:38;7.60;67.90
32173;DHT22;18679;45.190;5.722;2022-12-10T04:46:39;7.70;68.00
32173;DHT22;18679;45.190;5.722;2022-12-10T04:49:40;7.60;68.00
32173;DHT22;18679;45.190;5.722;2022-12-10T04:52:41;7.60;67.80
32173;DHT22;18679;45.190;5.722;2022-12-10T04:55:42;7.60;67.80
32173;DHT22;18679;45.190;5.722;2022-12-10T04:58:43;7.70;67.80
32173;DHT22;18679;45.190;5.722;2022-12-10T05:01:44;7.70;67.60
32173;DHT22;18679;45.190;5.722;2022-12-10T05:04:45;7.70;67.30
32173;DHT22;18679;45.190;5.722;2022-12-10T05:07:50;7.70;67.20
32173;DHT22;18679;45.190;5.722;2022-12-10T05:10:50;7.60;67.00
32173;DHT22;18679;45.190;5.722;2022-12-10T05:13:52;7.60;67.00
32173;DHT22;18679;45.190;5.722;2022-12-10T05:16:54;7.60;67.10
32173;DHT22;18679;45.190;5.722;2022-12-10T05:19:54;7.60;67.20
32173;DHT22;18679;45.190;5.722;2022-12-10T05:22:55;7.60;67.20
32173;DHT22;18679;45.190;5.722;2022-12-10T05:26:18;7.60;67.20
32173;DHT22;18679;45.190;5.722;2022-12-10T05:29:19;7.50;67.10
32173;DHT22;18679;45.190;5.722;2022-12-10T05:32:20;7.60;67.10
32173;DHT22;18679;45.190;5.722;2022-12-10T05:35:21;7.60;67.00
32173;DHT22;18679;45.190;5.722;2022-12-10T05:38:22;7.60;66.80
32173;DHT22;18679;45.190;5.722;2022-12-10T05:41:26;7.50;66.70
32173;DHT22;18679;45.190;5.722;2022-12-10T05:44:27;7.50;66.60
32173;DHT22;18679;45.190;5.722;2022-12-10T05:47:29;7.50;66.50
32173;DHT22;18679;45.190;5.722;2022-12-10T05:50:33;7.40;66.40
32173;DHT22;18679;45.190;5.722;2022-12-10T05:53:35;7.30;66.40
32173;DHT22;18679;45.190;5.722;2022-12-10T05:56:37;7.30;66.60
32173;DHT22;18679;45.190;5.722;2022-12-10T05:59:38;7.30;66.70
32173;DHT22;18679;45.190;5.722;2022-12-10T06:02:39;7.30;66.60
32173;DHT22;18679;45.190;5.722;2022-12-10T06:05:40;7.30;66.60
32173;DHT22;18679;45.190;5.722;2022-12-10T06:08:41;7.30;66.60
32173;DHT22;18679;45.190;5.722;2022-12-10T06:11:42;7.30;66.50
32173;DHT22;18679;45.190;5.722;2022-12-10T06:14:43;7.30;66.50
32173;DHT22;18679;45.190;5.722;2022-12-10T06:17:44;7.30;66.50
32173;DHT22;18679;45.190;5.722;2022-12-10T06:20:45;7.30;66.40
32173;DHT22;18679;45.190;5.722;2022-12-10T06:23:47;7.30;66.40
32173;DHT22;18679;45.190;5.722;2022-12-10T06:26:48;7.20;66.40
32173;DHT22;18679;45.190;5.722;2022-12-10T06:29:49;7.20;66.40
32173;DHT22;18679;45.190;5.722;2022-12-10T06:32:50;7.20;66.30
32173;DHT22;18679;45.190;5.722;2022-12-10T06:35:51;7.30;66.40
32173;DHT22;18679;45.190;5.722;2022-12-10T06:38:52;7.30;66.10
32173;DHT22;18679;45.190;5.722;2022-12-10T06:41:53;7.30;66.10
32173;DHT22;18679;45.190;5.722;2022-12-10T06:44:53;7.30;65.70
32173;DHT22;18679;45.190;5.722;2022-12-10T06:47:54;7.30;65.50
32173;DHT22;18679;45.190;5.722;2022-12-10T06:50:55;7.30;65.40
32173;DHT22;18679;45.190;5.722;2022-12-10T06:53:56;7.30;65.40
32173;DHT22;18679;45.190;5.722;2022-12-10T06:56:57;7.20;65.60
32173;DHT22;18679;45.190;5.722;2022-12-10T06:59:58;7.20;65.70
32173;DHT22;18679;45.190;5.722;2022-12-10T07:02:59;7.20;65.70
32173;DHT22;18679;45.190;5.722;2022-12-10T07:06:01;7.20;65.70
32173;DHT22;18679;45.190;5.722;2022-12-10T07:09:02;7.20;65.70
32173;DHT22;18679;45.190;5.722;2022-12-10T07:12:03;7.20;65.60
32173;DHT22;18679;45.190;5.722;2022-12-10T07:15:05;7.30;65.40
32173;DHT22;18679;45.190;5.722;2022-12-10T07:18:06;7.30;65.20
32173;DHT22;18679;45.190;5.722;2022-12-10T07:21:14;7.20;65.00
32173;DHT22;18679;45.190;5.722;2022-12-10T07:24:18;7.20;65.10
32173;DHT22;18679;45.190;5.722;2022-12-10T07:27:19;7.10;65.20
32173;DHT22;18679;45.190;5.722;2022-12-10T07:30:20;7.10;65.20
32173;DHT22;18679;45.190;5.722;2022-12-10T07:33:21;7.10;65.40
32173;DHT22;18679;45.190;5.722;2022-12-10T07:36:22;7.00;65.40
32173;DHT22;18679;45.190;5.722;2022-12-10T07:39:24;7.00;65.20
32173;DHT22;18679;45.190;5.722;2022-12-10T07:42:24;7.00;65.20
32173;DHT22;18679;45.190;5.722;2022-12-10T07:45:25;7.00;65.30
32173;DHT22;18679;45.190;5.722;2022-12-10T07:48:26;7.00;65.40
32173;DHT22;18679;45.190;5.722;2022-12-10T07:51:27;7.00;65.40
32173;DHT22;18679;45.190;5.722;2022-12-10T07:54:28;7.00;65.40
32173;DHT22;18679;45.190;5.722;2022-12-10T07:57:29;7.00;65.20
32173;DHT22;18679;45.190;5.722;2022-12-10T08:00:30;7.00;65.00
32173;DHT22;18679;45.190;5.722;2022-12-10T08:03:32;7.00;65.10
32173;DHT22;18679;45.190;5.722;2022-12-10T08:06:33;7.00;65.10
32173;DHT22;18679;45.190;5.722;2022-12-10T08:09:35;7.00;64.90
32173;DHT22;18679;45.190;5.722;2022-12-10T08:12:36;7.00;64.80
32173;DHT22;18679;45.190;5.722;2022-12-10T08:15:37;7.00;64.50
32173;DHT22;18679;45.190;5.722;2022-12-10T08:18:38;7.10;64.30
32173;DHT22;18679;45.190;5.722;2022-12-10T08:21:39;7.00;64.00
32173;DHT22;18679;45.190;5.722;2022-12-10T08:24:40;7.10;63.90
32173;DHT22;18679;45.190;5.722;2022-12-10T08:27:41;7.10;64.00
32173;DHT22;18679;45.190;5.722;2022-12-10T08:30:47;7.10;64.50
32173;DHT22;18679;45.190;5.722;2022-12-10T08:33:50;7.10;63.50
32173;DHT22;18679;45.190;5.722;2022-12-10T08:36:51;7.10;63.50
32173;DHT22;18679;45.190;5.722;2022-12-10T08:39:51;7.10;63.50
32173;DHT22;18679;45.190;5.722;2022-12-10T08:42:52;7.00;63.50
32173;DHT22;18679;45.190;5.722;2022-12-10T08:45:53;7.00;63.60
32173;DHT22;18679;45.190;5.722;2022-12-10T08:48:55;6.90;63.60
32173;DHT22;18679;45.190;5.722;2022-12-10T08:51:56;6.90;63.70
32173;DHT22;18679;45.190;5.722;2022-12-10T08:54:58;6.80;63.70
32173;DHT22;18679;45.190;5.722;2022-12-10T08:57:59;6.90;63.70
32173;DHT22;18679;45.190;5.722;2022-12-10T09:01:08;6.80;63.70
32173;DHT22;18679;45.190;5.722;2022-12-10T09:04:09;6.80;63.70
32173;DHT22;18679;45.190;5.722;2022-12-10T09:07:11;6.80;63.60
32173;DHT22;18679;45.190;5.722;2022-12-10T09:10:12;6.80;63.70
32173;DHT22;18679;45.190;5.722;2022-12-10T09:13:13;6.80;63.70
32173;DHT22;18679;45.190;5.722;2022-12-10T09:16:15;6.80;63.70
32173;DHT22;18679;45.190;5.722;2022-12-10T09:19:16;6.80;63.50
32173;DHT22;18679;45.190;5.722;2022-12-10T09:22:17;6.80;63.50
32173;DHT22;18679;45.190;5.722;2022-12-10T09:25:18;6.70;63.60
32173;DHT22;18679;45.190;5.722;2022-12-10T09:28:22;6.70;63.70
32173;DHT22;18679;45.190;5.722;2022-12-10T09:31:23;6.70;63.60
32173;DHT22;18679;45.190;5.722;2022-12-10T09:34:24;6.80;63.70
32173;DHT22;18679;45.190;5.722;2022-12-10T09:37:25;6.80;63.50
32173;DHT22;18679;45.190;5.722;2022-12-10T09:40:37;6.90;63.40
32173;DHT22;18679;45.190;5.722;2022-12-10T09:47:01;6.90;63.10
32173;DHT22;18679;45.190;5.722;2022-12-10T09:50:20;6.90;63.00
32173;DHT22;18679;45.190;5.722;2022-12-10T09:53:22;6.90;62.80
32173;DHT22;18679;45.190;5.722;2022-12-10T09:56:35;6.80;62.70
32173;DHT22;18679;45.190;5.722;2022-12-10T09:59:43;6.80;62.70
32173;DHT22;18679;45.190;5.722;2022-12-10T10:02:47;6.90;62.80
32173;DHT22;18679;45.190;5.722;2022-12-10T10:05:51;6.90;62.40
32173;DHT22;18679;45.190;5.722;2022-12-10T10:08:54;6.90;62.20
32173;DHT22;18679;45.190;5.722;2022-12-10T10:11:56;6.90;62.30
32173;DHT22;18679;45.190;5.722;2022-12-10T10:14:57;6.90;62.20
32173;DHT22;18679;45.190;5.722;2022-12-10T10:24:34;7.10;62.60
32173;DHT22;18679;45.190;5.722;2022-12-10T10:27:36;7.10;61.70
32173;DHT22;18679;45.190;5.722;2022-12-10T10:30:41;7.00;61.50
32173;DHT22;18679;45.190;5.722;2022-12-10T10:33:52;7.00;61.50
32173;DHT22;18679;45.190;5.722;2022-12-10T10:36:57;7.00;61.50
32173;DHT22;18679;45.190;5.722;2022-12-10T10:39:58;7.00;61.50
32173;DHT22;18679;45.190;5.722;2022-12-10T10:43:00;7.00;61.80
32173;DHT22;18679;45.190;5.722;2022-12-10T10:46:03;7.00;61.70
32173;DHT22;18679;45.190;5.722;2022-12-10T10:49:17;7.00;61.50
32173;DHT22;18679;45.190;5.722;2022-12-10T10:52:19;7.10;61.50
32173;DHT22;18679;45.190;5.722;2022-12-10T10:55:31;7.10;61.40
32173;DHT22;18679;45.190;5.722;2022-12-10T10:58:50;7.20;61.10
32173;DHT22;18679;45.190;5.722;2022-12-10T11:01:53;7.20;60.70
32173;DHT22;18679;45.190;5.722;2022-12-10T11:04:55;7.20;60.60
32173;DHT22;18679;45.190;5.722;2022-12-10T11:08:13;7.20;60.50
32173;DHT22;18679;45.190;5.722;2022-12-10T11:11:34;7.10;60.40
32173;DHT22;18679;45.190;5.722;2022-12-10T11:14:44;7.20;60.50
32173;DHT22;18679;45.190;5.722;2022-12-10T11:17:48;7.10;60.40
32173;DHT22;18679;45.190;5.722;2022-12-10T11:24:17;7.10;60.10
32173;DHT22;18679;45.190;5.722;2022-12-10T11:30:44;7.00;60.20
32173;DHT22;18679;45.190;5.722;2022-12-10T11:37:31;6.90;60.10
32173;DHT22;18679;45.190;5.722;2022-12-10T11:47:18;7.00;60.40
32173;DHT22;18679;45.190;5.722;2022-12-10T11:50:27;7.00;60.30
32173;DHT22;18679;45.190;5.722;2022-12-10T11:53:54;6.80;60.30
32173;DHT22;18679;45.190;5.722;2022-12-10T12:00:27;7.00;60.70
32173;DHT22;18679;45.190;5.722;2022-12-10T12:13:30;6.90;60.70
32173;DHT22;18679;45.190;5.722;2022-12-10T12:16:56;6.80;60.70
32173;DHT22;18679;45.190;5.722;2022-12-10T12:20:49;6.80;60.60
32173;DHT22;18679;45.190;5.722;2022-12-10T12:23:29;6.80;60.70
32173;DHT22;18679;45.190;5.722;2022-12-10T12:26:38;6.80;60.80
32173;DHT22;18679;45.190;5.722;2022-12-10T12:29:47;6.80;60.60
32173;DHT22;18679;45.190;5.722;2022-12-10T12:32:55;6.80;60.60
32173;DHT22;18679;45.190;5.722;2022-12-10T12:36:11;6.80;60.40
32173;DHT22;18679;45.190;5.722;2022-12-10T12:39:29;6.80;60.40
32173;DHT22;18679;45.190;5.722;2022-12-10T12:42:46;6.80;60.50
32173;DHT22;18679;45.190;5.722;2022-12-10T12:45:52;6.80;60.40
32173;DHT22;18679;45.190;5.722;2022-12-10T12:49:11;6.80;60.50
32173;DHT22;18679;45.190;5.722;2022-12-10T12:52:43;6.80;60.30
32173;DHT22;18679;45.190;5.722;2022-12-10T12:56:12;6.80;60.40
32173;DHT22;18679;45.190;5.722;2022-12-10T13:00:01;6.60;60.20
32173;DHT22;18679;45.190;5.722;2022-12-10T13:06:26;6.60;60.60
32173;DHT22;18679;45.190;5.722;2022-12-10T13:09:44;6.60;60.70
32173;DHT22;18679;45.190;5.722;2022-12-10T13:12:51;6.60;60.80
32173;DHT22;18679;45.190;5.722;2022-12-10T13:15:53;6.50;60.90
32173;DHT22;18679;45.190;5.722;2022-12-10T13:22:42;6.50;60.30
32173;DHT22;18679;45.190;5.722;2022-12-10T13:29:12;6.50;60.10
32173;DHT22;18679;45.190;5.722;2022-12-10T13:32:17;6.40;59.90
32173;DHT22;18679;45.190;5.722;2022-12-10T13:35:26;6.40;59.40
32173;DHT22;18679;45.190;5.722;2022-12-10T13:38:27;6.40;59.30
32173;DHT22;18679;45.190;5.722;2022-12-10T13:41:30;6.30;59.20
32173;DHT22;18679;45.190;5.722;2022-12-10T13:48:17;6.30;59.30
32173;DHT22;18679;45.190;5.722;2022-12-10T13:51:44;6.20;58.90
32173;DHT22;18679;45.190;5.722;2022-12-10T13:58:13;6.40;58.90
32173;DHT22;18679;45.190;5.722;2022-12-10T14:01:38;6.40;58.70
32173;DHT22;18679;45.190;5.722;2022-12-10T14:08:28;6.40;58.50
32173;DHT22;18679;45.190;5.722;2022-12-10T14:11:46;6.30;58.40
32173;DHT22;18679;45.190;5.722;2022-12-10T14:14:55;6.30;58.40
32173;DHT22;18679;45.190;5.722;2022-12-10T14:18:10;6.40;58.50
32173;DHT22;18679;45.190;5.722;2022-12-10T14:21:14;6.30;58.50
32173;DHT22;18679;45.190;5.722;2022-12-10T14:24:31;6.40;58.60
32173;DHT22;18679;45.190;5.722;2022-12-10T14:27:33;6.40;58.70
32173;DHT22;18679;45.190;5.722;2022-12-10T14:30:46;6.40;58.60
32173;DHT22;18679;45.190;5.722;2022-12-10T14:33:49;6.40;58.60
32173;DHT22;18679;45.190;5.722;2022-12-10T14:36:55;6.40;58.80
32173;DHT22;18679;45.190;5.722;2022-12-10T14:39:57;6.30;58.70
32173;DHT22;18679;45.190;5.722;2022-12-10T14:43:06;6.30;58.80
32173;DHT22;18679;45.190;5.722;2022-12-10T14:46:22;6.30;58.80
32173;DHT22;18679;45.190;5.722;2022-12-10T14:49:25;6.30;58.90
32173;DHT22;18679;45.190;5.722;2022-12-10T14:52:38;6.20;59.00
32173;DHT22;18679;45.190;5.722;2022-12-10T14:55:39;6.20;59.20
32173;DHT22;18679;45.190;5.722;2022-12-10T15:01:57;6.10;59.60
32173;DHT22;18679;45.190;5.722;2022-12-10T15:05:00;6.10;59.80
32173;DHT22;18679;45.190;5.722;2022-12-10T15:08:07;6.10;59.90
32173;DHT22;18679;45.190;5.722;2022-12-10T15:11:17;6.10;60.10
32173;DHT22;18679;45.190;5.722;2022-12-10T15:14:19;6.00;60.30
32173;DHT22;18679;45.190;5.722;2022-12-10T15:17:53;6.00;60.60
32173;DHT22;18679;45.190;5.722;2022-12-10T15:21:16;6.00;60.80
32173;DHT22;18679;45.190;5.722;2022-12-10T15:24:25;6.00;60.90
32173;DHT22;18679;45.190;5.722;2022-12-10T15:27:26;6.00;61.00
32173;DHT22;18679;45.190;5.722;2022-12-10T15:30:37;6.00;61.20
32173;DHT22;18679;45.190;5.722;2022-12-10T15:33:48;6.00;61.40
32173;DHT22;18679;45.190;5.722;2022-12-10T15:36:54;6.00;61.50
32173;DHT22;18679;45.190;5.722;2022-12-10T15:39:58;6.00;61.40
32173;DHT22;18679;45.190;5.722;2022-12-10T15:46:23;6.00;61.60
32173;DHT22;18679;45.190;5.722;2022-12-10T15:49:24;6.00;61.40
32173;DHT22;18679;45.190;5.722;2022-12-10T15:52:30;6.00;61.30
32173;DHT22;18679;45.190;5.722;2022-12-10T15:55:32;6.10;61.40
32173;DHT22;18679;45.190;5.722;2022-12-10T15:58:33;6.00;61.30
32173;DHT22;18679;45.190;5.722;2022-12-10T16:01:35;6.00;61.30
32173;DHT22;18679;45.190;5.722;2022-12-10T16:04:35;6.00;61.60
32173;DHT22;18679;45.190;5.722;2022-12-10T16:07:36;6.00;61.80
32173;DHT22;18679;45.190;5.722;2022-12-10T16:10:38;6.00;61.90
32173;DHT22;18679;45.190;5.722;2022-12-10T16:13:45;6.00;61.80
32173;DHT22;18679;45.190;5.722;2022-12-10T16:16:48;6.00;61.90
32173;DHT22;18679;45.190;5.722;2022-12-10T16:19:49;6.00;61.90
32173;DHT22;18679;45.190;5.722;2022-12-10T16:22:50;5.90;62.00
32173;DHT22;18679;45.190;5.722;2022-12-10T16:25:51;5.90;62.10
32173;DHT22;18679;45.190;5.722;2022-12-10T16:28:52;5.90;62.20
32173;DHT22;18679;45.190;5.722;2022-12-10T16:31:53;5.90;62.20
32173;DHT22;18679;45.190;5.722;2022-12-10T16:34:54;6.00;62.20
32173;DHT22;18679;45.190;5.722;2022-12-10T16:37:55;5.90;62.10
32173;DHT22;18679;45.190;5.722;2022-12-10T16:40:55;5.90;62.30
32173;DHT22;18679;45.190;5.722;2022-12-10T16:43:57;5.90;62.30
32173;DHT22;18679;45.190;5.722;2022-12-10T16:46:58;5.90;62.40
32173;DHT22;18679;45.190;5.722;2022-12-10T16:50:00;5.80;62.30
32173;DHT22;18679;45.190;5.722;2022-12-10T16:53:26;5.80;62.20
32173;DHT22;18679;45.190;5.722;2022-12-10T16:56:28;5.90;62.40
32173;DHT22;18679;45.190;5.722;2022-12-10T16:59:28;5.80;62.20
32173;DHT22;18679;45.190;5.722;2022-12-10T17:02:29;5.90;62.30
32173;DHT22;18679;45.190;5.722;2022-12-10T17:05:35;5.90;62.50
32173;DHT22;18679;45.190;5.722;2022-12-10T17:08:36;5.90;62.30
32173;DHT22;18679;45.190;5.722;2022-12-10T17:11:40;5.90;62.30
32173;DHT22;18679;45.190;5.722;2022-12-10T17:14:45;6.00;62.40
32173;DHT22;18679;45.190;5.722;2022-12-10T17:17:47;5.90;63.30
32173;DHT22;18679;45.190;5.722;2022-12-10T17:20:48;5.90;62.60
32173;DHT22;18679;45.190;5.722;2022-12-10T17:23:50;5.90;62.70
32173;DHT22;18679;45.190;5.722;2022-12-10T17:26:52;5.90;62.80
32173;DHT22;18679;45.190;5.722;2022-12-10T17:29:54;5.90;63.00
32173;DHT22;18679;45.190;5.722;2022-12-10T17:32:55;5.90;62.80
32173;DHT22;18679;45.190;5.722;2022-12-10T17:35:56;6.00;62.90
32173;DHT22;18679;45.190;5.722;2022-12-10T17:38:57;5.90;63.00
32173;DHT22;18679;45.190;5.722;2022-12-10T17:41:58;5.90;63.10
32173;DHT22;18679;45.190;5.722;2022-12-10T17:44:59;5.90;63.30
32173;DHT22;18679;45.190;5.722;2022-12-10T17:48:01;5.80;63.40
32173;DHT22;18679;45.190;5.722;2022-12-10T17:51:02;5.80;63.70
32173;DHT22;18679;45.190;5.722;2022-12-10T17:54:04;5.70;64.00
32173;DHT22;18679;45.190;5.722;2022-12-10T17:57:21;5.70;64.30
32173;DHT22;18679;45.190;5.722;2022-12-10T18:00:25;5.70;64.50
32173;DHT22;18679;45.190;5.722;2022-12-10T18:03:26;5.70;64.50
32173;DHT22;18679;45.190;5.722;2022-12-10T18:06:29;5.70;64.30
32173;DHT22;18679;45.190;5.722;2022-12-10T18:09:30;5.70;64.30
32173;DHT22;18679;45.190;5.722;2022-12-10T18:12:31;5.70;64.30
32173;DHT22;18679;45.190;5.722;2022-12-10T18:15:32;5.70;64.30
32173;DHT22;18679;45.190;5.722;2022-12-10T18:18:33;5.60;64.30
32173;DHT22;18679;45.190;5.722;2022-12-10T18:21:34;5.70;64.50
32173;DHT22;18679;45.190;5.722;2022-12-10T18:24:35;5.70;64.70
32173;DHT22;18679;45.190;5.722;2022-12-10T18:27:36;5.70;64.50
32173;DHT22;18679;45.190;5.722;2022-12-10T18:30:37;5.70;64.40
32173;DHT22;18679;45.190;5.722;2022-12-10T18:33:41;5.70;64.30
32173;DHT22;18679;45.190;5.722;2022-12-10T18:36:45;5.80;64.20
32173;DHT22;18679;45.190;5.722;2022-12-10T18:39:46;5.70;64.10
32173;DHT22;18679;45.190;5.722;2022-12-10T18:42:47;5.70;64.10
32173;DHT22;18679;45.190;5.722;2022-12-10T18:45:51;5.80;64.00
32173;DHT22;18679;45.190;5.722;2022-12-10T18:48:52;5.80;63.80
32173;DHT22;18679;45.190;5.722;2022-12-10T18:51:55;5.80;63.70
32173;DHT22;18679;45.190;5.722;2022-12-10T18:54:57;5.80;63.70
32173;DHT22;18679;45.190;5.722;2022-12-10T18:57:59;5.80;63.50
32173;DHT22;18679;45.190;5.722;2022-12-10T19:01:00;5.80;63.50
32173;DHT22;18679;45.190;5.722;2022-12-10T19:04:02;5.80;63.60
32173;DHT22;18679;45.190;5.722;2022-12-10T19:07:04;5.80;63.60
32173;DHT22;18679;45.190;5.722;2022-12-10T19:10:15;5.80;63.60
32173;DHT22;18679;45.190;5.722;2022-12-10T19:13:17;5.80;63.40
32173;DHT22;18679;45.190;5.722;2022-12-10T19:16:22;5.80;63.40
32173;DHT22;18679;45.190;5.722;2022-12-10T19:19:23;5.80;63.60
32173;DHT22;18679;45.190;5.722;2022-12-10T19:22:24;5.70;63.50
32173;DHT22;18679;45.190;5.722;2022-12-10T19:25:25;5.70;63.50
32173;DHT22;18679;45.190;5.722;2022-12-10T19:28:26;5.70;63.10
32173;DHT22;18679;45.190;5.722;2022-12-10T19:31:27;5.70;63.10
32173;DHT22;18679;45.190;5.722;2022-12-10T19:34:30;5.70;63.10
32173;DHT22;18679;45.190;5.722;2022-12-10T19:37:36;5.70;63.10
32173;DHT22;18679;45.190;5.722;2022-12-10T19:40:37;5.70;63.20
32173;DHT22;18679;45.190;5.722;2022-12-10T19:43:39;5.70;63.20
32173;DHT22;18679;45.190;5.722;2022-12-10T19:46:40;5.60;63.10
32173;DHT22;18679;45.190;5.722;2022-12-10T19:49:43;5.60;63.10
32173;DHT22;18679;45.190;5.722;2022-12-10T19:52:45;5.60;63.10
32173;DHT22;18679;45.190;5.722;2022-12-10T19:55:47;5.60;63.00
32173;DHT22;18679;45.190;5.722;2022-12-10T19:58:50;5.60;62.70
32173;DHT22;18679;45.190;5.722;2022-12-10T20:01:52;5.60;62.60
32173;DHT22;18679;45.190;5.722;2022-12-10T20:04:53;5.60;62.50
32173;DHT22;18679;45.190;5.722;2022-12-10T20:07:54;5.60;62.20
32173;DHT22;18679;45.190;5.722;2022-12-10T20:10:55;5.60;62.00
32173;DHT22;18679;45.190;5.722;2022-12-10T20:13:56;5.60;61.70
32173;DHT22;18679;45.190;5.722;2022-12-10T20:16:59;5.60;61.60
32173;DHT22;18679;45.190;5.722;2022-12-10T20:20:00;5.60;61.50
32173;DHT22;18679;45.190;5.722;2022-12-10T20:23:01;5.60;61.30
32173;DHT22;18679;45.190;5.722;2022-12-10T20:26:03;5.60;61.10
32173;DHT22;18679;45.190;5.722;2022-12-10T20:29:19;5.70;61.00
32173;DHT22;18679;45.190;5.722;2022-12-10T20:32:20;5.70;61.00
32173;DHT22;18679;45.190;5.722;2022-12-10T20:35:23;5.80;60.80
32173;DHT22;18679;45.190;5.722;2022-12-10T20:38:24;5.80;60.60
32173;DHT22;18679;45.190;5.722;2022-12-10T20:41:25;5.80;60.40
32173;DHT22;18679;45.190;5.722;2022-12-10T20:44:27;5.90;60.00
32173;DHT22;18679;45.190;5.722;2022-12-10T20:47:29;5.90;59.90
32173;DHT22;18679;45.190;5.722;2022-12-10T20:50:30;5.90;59.70
32173;DHT22;18679;45.190;5.722;2022-12-10T20:53:31;5.80;59.50
32173;DHT22;18679;45.190;5.722;2022-12-10T20:56:32;5.80;59.60
32173;DHT22;18679;45.190;5.722;2022-12-10T20:59:34;5.90;59.60
32173;DHT22;18679;45.190;5.722;2022-12-10T21:02:35;5.90;59.60
32173;DHT22;18679;45.190;5.722;2022-12-10T21:05:36;5.80;59.50
32173;DHT22;18679;45.190;5.722;2022-12-10T21:08:37;5.80;59.60
32173;DHT22;18679;45.190;5.722;2022-12-10T21:11:38;5.80;59.60
32173;DHT22;18679;45.190;5.722;2022-12-10T21:14:39;5.80;59.50
32173;DHT22;18679;45.190;5.722;2022-12-10T21:17:42;5.70;59.50